createdAt,value
2023-05-22T00:01:56.824Z,100853.14
2023-05-22T00:04:24.065Z,100855.39
2023-05-22T00:06:50.999Z,100854.32
2023-05-22T00:09:18.065Z,100851.50
2023-05-22T00:11:45.146Z,100849.55
2023-05-22T00:14:13.778Z,100849.71
2023-05-22T00:16:41.373Z,100850.16
2023-05-22T00:19:13.402Z,100849.61
2023-05-22T00:22:06.179Z,100847.69
2023-05-22T00:24:36.248Z,100845.04
2023-05-22T00:27:03.194Z,100843.70
2023-05-22T00:29:30.141Z,100840.86
2023-05-22T00:31:57.566Z,100843.09
2023-05-22T00:34:24.552Z,100843.11
2023-05-22T00:36:51.388Z,100844.48
2023-05-22T00:39:18.335Z,100847.80
2023-05-22T00:41:46.058Z,100848.56
2023-05-22T00:44:13.270Z,100846.06
2023-05-22T00:46:40.965Z,100842.77
2023-05-22T00:49:07.887Z,100843.31
2023-05-22T00:51:34.759Z,100843.95
2023-05-22T00:54:01.741Z,100844.90
2023-05-22T00:56:29.273Z,100842.98
2023-05-22T00:58:56.401Z,100843.55
2023-05-22T01:01:23.440Z,100843.77
2023-05-22T01:03:50.915Z,100843.75
2023-05-22T01:06:18.714Z,100842.95
2023-05-22T01:08:45.614Z,100844.08
2023-05-22T01:11:18.316Z,100844.09
2023-05-22T01:14:04.511Z,100838.27
2023-05-22T01:17:00.163Z,100838.02
2023-05-22T01:23:39.142Z,100836.13
2023-05-22T01:26:12.838Z,100832.75
2023-05-22T01:28:56.832Z,100831.02
2023-05-22T01:31:27.678Z,100831.11
2023-05-22T01:33:57.273Z,100830.89
2023-05-22T01:36:26.308Z,100832.33
2023-05-22T01:38:53.198Z,100831.56
2023-05-22T01:41:20.206Z,100829.79
2023-05-22T01:43:47.423Z,100828.27
2023-05-22T01:46:14.685Z,100828.67
2023-05-22T01:48:41.876Z,100836.84
2023-05-22T01:51:18.425Z,100833.94
2023-05-22T01:54:06.273Z,100824.35
2023-05-22T01:56:57.246Z,100825.86
2023-05-22T01:59:33.128Z,100823.20
2023-05-22T02:02:04.047Z,100820.14
2023-05-22T02:04:31.170Z,100817.18
2023-05-22T02:06:58.490Z,100818.63
2023-05-22T02:09:25.939Z,100821.61
2023-05-22T02:11:52.847Z,100822.69
2023-05-22T02:14:19.784Z,100821.68
2023-05-22T02:16:47.875Z,100822.07
2023-05-22T02:19:27.227Z,100822.48
2023-05-22T02:21:57.333Z,100815.88
2023-05-22T02:24:24.201Z,100818.27
2023-05-22T02:26:51.567Z,100814.95
2023-05-22T02:29:19.076Z,100814.69
2023-05-22T02:31:46.121Z,100816.30
2023-05-22T02:34:13.037Z,100813.02
2023-05-22T02:36:40.960Z,100813.80
2023-05-22T02:39:08.836Z,100812.73
2023-05-22T02:41:35.680Z,100811.20
2023-05-22T02:44:12.070Z,100811.88
2023-05-22T02:46:39.036Z,100813.27
2023-05-22T02:49:06.099Z,100815.98
2023-05-22T02:51:33.297Z,100817.40
2023-05-22T02:54:00.209Z,100818.24
2023-05-22T02:56:29.038Z,100815.64
2023-05-22T02:58:57.260Z,100815.55
2023-05-22T03:01:26.632Z,100816.97
2023-05-22T03:03:55.085Z,100821.88
2023-05-22T03:06:23.352Z,100824.46
2023-05-22T03:08:50.885Z,100827.62
2023-05-22T03:11:17.776Z,100827.23
2023-05-22T03:13:45.009Z,100829.74
2023-05-22T03:16:12.014Z,100831.42
2023-05-22T03:18:41.893Z,100832.55
2023-05-22T03:21:11.934Z,100834.45
2023-05-22T03:23:44.937Z,100832.52
2023-05-22T03:26:14.748Z,100829.55
2023-05-22T03:28:41.903Z,100828.46
2023-05-22T03:31:09.515Z,100829.44
2023-05-22T03:33:45.886Z,100826.93
2023-05-22T03:36:12.905Z,100826.27
2023-05-22T03:38:40.099Z,100825.40
2023-05-22T03:41:07.962Z,100824.30
2023-05-22T03:43:34.865Z,100827.55
2023-05-22T03:46:01.819Z,100828.18
2023-05-22T03:48:28.785Z,100831.55
2023-05-22T03:51:20.609Z,100830.72
2023-05-22T03:53:50.411Z,100827.83
2023-05-22T03:56:17.246Z,100829.61
2023-05-22T03:58:44.154Z,100828.28
2023-05-22T04:01:11.423Z,100824.79
2023-05-22T04:03:38.382Z,100827.85
2023-05-22T04:06:05.834Z,100828.90
2023-05-22T04:08:32.799Z,100824.32
2023-05-22T04:11:00.686Z,100823.92
2023-05-22T04:13:27.739Z,100824.88
2023-05-22T04:15:54.998Z,100824.13
2023-05-22T04:18:21.858Z,100823.54
2023-05-22T04:20:51.816Z,100826.85
2023-05-22T04:23:19.177Z,100825.73
2023-05-22T04:25:48.031Z,100822.77
2023-05-22T04:28:17.747Z,100817.20
2023-05-22T04:30:46.511Z,100812.42
2023-05-22T04:33:13.708Z,100809.26
2023-05-22T04:35:44.410Z,100810.87
2023-05-22T04:38:11.282Z,100812.49
2023-05-22T04:40:38.550Z,100810.79
2023-05-22T04:43:06.280Z,100808.95
2023-05-22T04:45:33.652Z,100810.86
2023-05-22T04:48:02.726Z,100811.85
2023-05-22T04:50:33.090Z,100814.37
2023-05-22T04:53:00.160Z,100817.04
2023-05-22T04:55:27.006Z,100818.82
2023-05-22T04:57:53.980Z,100821.06
2023-05-22T05:00:26.527Z,100821.41
2023-05-22T05:02:53.747Z,100816.02
2023-05-22T05:05:20.866Z,100815.14
2023-05-22T05:07:50.101Z,100810.55
2023-05-22T05:10:17.771Z,100810.84
2023-05-22T05:12:44.679Z,100812.96
2023-05-22T05:15:11.771Z,100809.31
2023-05-22T05:17:39.388Z,100810.37
2023-05-22T05:20:08.986Z,100807.27
2023-05-22T05:22:37.510Z,100803.21
2023-05-22T05:25:05.845Z,100803.94
2023-05-22T05:27:33.134Z,100803.20
2023-05-22T05:30:00.523Z,100800.52
2023-05-22T05:32:38.955Z,100803.65
2023-05-22T05:35:51.688Z,100799.79
2023-05-22T05:38:23.541Z,100804.42
2023-05-22T05:40:53.370Z,100807.23
2023-05-22T05:43:20.829Z,100805.47
2023-05-22T05:46:17.508Z,100806.01
2023-05-22T05:48:44.931Z,100804.15
2023-05-22T05:51:11.920Z,100798.66
2023-05-22T05:53:41.931Z,100797.03
2023-05-22T05:56:12.071Z,100795.46
2023-05-22T05:58:41.772Z,100795.71
2023-05-22T06:01:27.555Z,100796.31
2023-05-22T06:03:59.478Z,100794.50
2023-05-22T06:06:40.626Z,100794.38
2023-05-22T06:09:25.057Z,100791.40
2023-05-22T06:12:21.533Z,100789.84
2023-05-22T06:14:48.507Z,100790.31
2023-05-22T06:18:22.067Z,100786.20
2023-05-22T06:20:49.146Z,100788.55
2023-05-22T06:35:13.092Z,100786.89
2023-05-22T06:37:43.041Z,100784.20
2023-05-22T06:40:11.246Z,100782.33
2023-05-22T06:43:01.490Z,100779.80
2023-05-22T06:45:46.701Z,100782.63
2023-05-22T06:48:35.195Z,100780.61
2023-05-22T06:51:16.370Z,100778.44
2023-05-22T06:53:46.377Z,100775.93
2023-05-22T06:56:17.947Z,100775.00
2023-05-22T06:58:52.250Z,100777.86
2023-05-22T07:01:19.603Z,100777.05
2023-05-22T07:03:57.978Z,100775.20
2023-05-22T07:06:39.157Z,100772.88
2023-05-22T07:09:06.462Z,100772.20
2023-05-22T07:11:33.634Z,100772.94
2023-05-22T07:14:01.468Z,100775.02
2023-05-22T07:16:40.626Z,100772.69
2023-05-22T07:19:12.135Z,100769.23
2023-05-22T07:21:45.771Z,100771.07
2023-05-22T07:24:22.412Z,100765.34
2023-05-22T07:26:58.279Z,100761.91
2023-05-22T07:30:13.793Z,100762.73
2023-05-22T07:32:41.307Z,100764.08
2023-05-22T07:35:10.787Z,100762.72
2023-05-22T07:38:25.504Z,100758.21
2023-05-22T07:41:04.931Z,100757.25
2023-05-22T07:44:11.084Z,100755.02
2023-05-22T07:46:47.168Z,100756.14
2023-05-22T07:49:22.289Z,100754.93
2023-05-22T07:51:50.081Z,100751.48
2023-05-22T07:54:18.439Z,100751.50
2023-05-22T07:56:47.916Z,100744.79
2023-05-22T07:59:16.146Z,100742.44
2023-05-22T08:01:43.188Z,100738.98
2023-05-22T08:04:10.552Z,100733.69
2023-05-22T08:06:37.632Z,100730.86
2023-05-22T08:09:05.133Z,100736.39
2023-05-22T08:11:32.349Z,100737.07
2023-05-22T08:13:59.174Z,100736.04
2023-05-22T08:16:26.100Z,100732.77
2023-05-22T08:18:53.125Z,100727.95
2023-05-22T08:21:23.120Z,100730.74
2023-05-22T08:23:51.243Z,100728.41
2023-05-22T08:26:18.141Z,100729.61
2023-05-22T08:28:45.004Z,100729.42
2023-05-22T08:31:12.365Z,100734.36
2023-05-22T08:33:39.875Z,100731.90
2023-05-22T08:36:06.798Z,100732.45
2023-05-22T08:38:33.838Z,100734.55
2023-05-22T08:41:00.965Z,100733.36
2023-05-22T08:43:28.654Z,100733.77
2023-05-22T08:46:06.228Z,100733.02
2023-05-22T08:48:33.355Z,100732.84
2023-05-22T08:51:07.382Z,100733.15
2023-05-22T08:53:36.069Z,100730.69
2023-05-22T08:56:05.731Z,100729.30
2023-05-22T08:58:33.630Z,100725.63
2023-05-22T09:01:00.612Z,100723.76
2023-05-22T09:03:29.145Z,100723.86
2023-05-22T09:05:56.311Z,100729.69
2023-05-22T09:08:24.244Z,100727.13
2023-05-22T09:10:51.370Z,100721.80
2023-05-22T09:13:31.548Z,100723.35
2023-05-22T09:16:55.977Z,100731.47
2023-05-22T09:19:29.620Z,100725.89
2023-05-22T09:22:05.202Z,100722.35
2023-05-22T09:24:37.828Z,100728.52
2023-05-22T09:27:06.684Z,100721.95
2023-05-22T09:29:48.542Z,100720.97
2023-05-22T09:32:16.520Z,100717.03
2023-05-22T09:34:45.246Z,100713.52
2023-05-22T09:37:12.473Z,100711.42
2023-05-22T09:39:42.704Z,100712.18
2023-05-22T09:42:11.641Z,100710.05
2023-05-22T09:44:39.350Z,100707.12
2023-05-22T09:47:06.622Z,100707.43
2023-05-22T09:49:41.618Z,100703.94
2023-05-22T09:52:09.293Z,100703.63
2023-05-22T09:54:36.715Z,100698.11
2023-05-22T09:57:04.044Z,100697.98
2023-05-22T09:59:31.619Z,100690.93
2023-05-22T10:01:58.623Z,100692.33
2023-05-22T10:04:25.710Z,100693.55
2023-05-22T10:06:55.710Z,100690.96
2023-05-22T10:09:24.795Z,100688.84
2023-05-22T10:11:55.469Z,100684.91
2023-05-22T10:14:22.434Z,100683.19
2023-05-22T10:16:49.422Z,100684.61
2023-05-22T10:19:16.350Z,100681.68
2023-05-22T10:21:43.591Z,100679.24
2023-05-22T10:24:10.475Z,100672.05
2023-05-22T10:26:37.673Z,100668.20
2023-05-22T10:29:12.061Z,100669.36
2023-05-22T10:32:08.360Z,100670.45
2023-05-22T10:35:01.798Z,100672.73
2023-05-22T10:37:32.999Z,100670.37
2023-05-22T10:40:06.347Z,100668.84
2023-05-22T10:42:33.281Z,100662.48
2023-05-22T10:45:04.407Z,100662.15
2023-05-22T10:47:33.568Z,100661.46
2023-05-22T10:50:07.772Z,100657.27
2023-05-22T10:52:38.646Z,100656.34
2023-05-22T10:55:09.434Z,100653.42
2023-05-22T10:57:40.182Z,100644.83
2023-05-22T11:00:11.550Z,100637.38
2023-05-22T11:02:41.092Z,100638.86
2023-05-22T11:05:17.098Z,100636.81
2023-05-22T11:07:44.066Z,100634.73
2023-05-22T11:10:11.427Z,100636.72
2023-05-22T11:12:38.313Z,100638.56
2023-05-22T11:15:06.214Z,100638.81
2023-05-22T11:17:39.884Z,100634.53
2023-05-22T11:20:13.032Z,100626.14
2023-05-22T11:22:41.829Z,100625.70
2023-05-22T11:25:10.815Z,100629.20
2023-05-22T11:39:35.622Z,100621.13
2023-05-22T11:42:04.647Z,100614.80
2023-05-22T11:44:31.531Z,100615.11
2023-05-22T11:46:58.513Z,100613.30
2023-05-22T11:49:25.450Z,100613.45
2023-05-22T11:51:52.562Z,100610.32
2023-05-22T11:54:19.687Z,100615.05
2023-05-22T11:56:47.312Z,100613.20
2023-05-22T11:59:14.713Z,100614.81
2023-05-22T12:01:42.247Z,100608.17
2023-05-22T12:04:09.736Z,100605.98
2023-05-22T12:06:37.370Z,100599.30
2023-05-22T12:09:05.204Z,100594.81
2023-05-22T12:11:35.278Z,100589.05
2023-05-22T12:14:05.888Z,100587.04
2023-05-22T12:16:36.909Z,100591.94
2023-05-22T12:19:06.649Z,100592.06
2023-05-22T12:21:34.169Z,100597.33
2023-05-22T12:24:05.868Z,100596.55
2023-05-22T12:26:33.729Z,100593.36
2023-05-22T12:29:01.350Z,100590.48
2023-05-22T12:31:28.797Z,100585.98
2023-05-22T12:33:56.725Z,100585.46
2023-05-22T12:36:53.542Z,100577.99
2023-05-22T12:39:21.454Z,100575.45
2023-05-22T12:41:48.852Z,100575.36
2023-05-22T12:44:16.669Z,100570.16
2023-05-22T12:46:44.077Z,100566.52
2023-05-22T12:49:11.599Z,100563.91
2023-05-22T12:51:39.066Z,100542.02
2023-05-22T12:54:06.551Z,100554.19
2023-05-22T12:56:34.036Z,100565.27
2023-05-22T12:59:01.499Z,100568.52
2023-05-22T13:01:29.054Z,100565.69
2023-05-22T13:03:56.732Z,100565.33
2023-05-22T13:06:24.365Z,100559.61
2023-05-22T13:08:51.732Z,100558.55
2023-05-22T13:11:20.252Z,100555.08
2023-05-22T13:13:51.329Z,100549.31
2023-05-22T13:16:19.526Z,100545.73
2023-05-22T13:18:47.338Z,100539.92
2023-05-22T13:21:14.968Z,100540.79
2023-05-22T13:23:42.422Z,100540.13
2023-05-22T13:26:09.988Z,100538.15
2023-05-22T13:28:37.448Z,100537.89
2023-05-22T13:31:04.879Z,100540.88
2023-05-22T13:33:32.350Z,100541.41
2023-05-22T13:35:59.825Z,100537.48
2023-05-22T13:38:27.362Z,100528.91
2023-05-22T13:40:54.929Z,100529.20
2023-05-22T13:43:22.463Z,100535.72
2023-05-22T13:45:50.128Z,100532.59
2023-05-22T13:54:55.675Z,100526.05
2023-05-22T13:57:45.092Z,100522.35
2023-05-22T14:00:25.588Z,100526.89
2023-05-22T14:03:09.997Z,100523.55
2023-05-22T14:05:48.708Z,100519.77
2023-05-22T14:08:39.603Z,100517.33
2023-05-22T14:11:18.699Z,100512.70
2023-05-22T14:13:52.802Z,100514.02
2023-05-22T14:16:24.348Z,100514.48
2023-05-22T14:19:11.380Z,100511.71
2023-05-22T14:21:54.362Z,100507.42
2023-05-22T14:24:38.075Z,100507.59
2023-05-22T14:27:10.894Z,100506.56
2023-05-22T14:29:58.028Z,100505.05
2023-05-22T14:32:34.231Z,100504.23
2023-05-22T14:35:07.073Z,100506.73
2023-05-22T14:37:50.817Z,100502.45
2023-05-22T14:40:34.443Z,100503.19
2023-05-22T14:43:12.977Z,100498.73
2023-05-22T14:46:19.573Z,100494.70
2023-05-22T14:49:46.562Z,100495.02
2023-05-22T14:52:49.142Z,100490.98
2023-05-22T14:55:32.550Z,100488.69
2023-05-22T14:58:32.431Z,100485.73
2023-05-22T15:01:26.654Z,100484.77
2023-05-22T16:33:46.273Z,100478.73
2023-05-22T16:36:13.738Z,100483.20
2023-05-22T16:38:42.083Z,100480.08
2023-05-22T16:41:09.542Z,100479.06
2023-05-22T16:43:38.533Z,100482.60
2023-05-22T16:46:09.270Z,100484.56
2023-05-22T16:48:36.777Z,100484.50
2023-05-22T16:51:04.399Z,100484.58
2023-05-22T16:53:31.800Z,100485.42
2023-05-22T16:56:00.134Z,100489.67
2023-05-22T16:58:27.571Z,100491.92
2023-05-22T17:00:55.247Z,100493.55
2023-05-22T17:03:22.996Z,100495.60
2023-05-22T17:05:51.550Z,100495.84
2023-05-22T17:08:18.993Z,100493.67
2023-05-22T17:10:46.337Z,100494.80
2023-05-22T17:13:20.855Z,100496.77
2023-05-22T17:15:49.107Z,100495.95
2023-05-22T17:18:19.796Z,100491.63
2023-05-22T17:20:48.323Z,100491.55
2023-05-22T17:23:16.186Z,100492.73
2023-05-22T17:25:46.599Z,100494.82
2023-05-22T17:28:17.665Z,100496.67
2023-05-22T17:30:46.223Z,100494.52
2023-05-22T17:33:14.257Z,100496.59
2023-05-22T17:35:42.249Z,100492.38
2023-05-22T17:38:10.265Z,100492.77
2023-05-22T17:40:44.799Z,100494.58
2023-05-22T17:43:12.778Z,100495.45
2023-05-22T17:45:40.477Z,100499.27
2023-05-22T17:48:08.267Z,100501.80
2023-05-22T17:50:35.883Z,100503.27
2023-05-22T17:53:03.491Z,100504.25
2023-05-22T17:55:30.974Z,100504.00
2023-05-22T17:57:59.126Z,100502.74
2023-05-22T18:00:26.584Z,100504.33
2023-05-22T18:02:54.211Z,100506.49
2023-05-22T18:05:22.002Z,100505.33
2023-05-22T18:07:49.577Z,100508.45
2023-05-22T18:10:17.233Z,100507.58
2023-05-22T18:12:44.751Z,100513.27
2023-05-22T18:15:12.471Z,100514.30
2023-05-22T18:17:41.466Z,100514.13
2023-05-22T18:20:12.024Z,100519.54
2023-05-22T18:22:39.832Z,100521.13
2023-05-22T18:25:08.086Z,100518.42
2023-05-22T18:27:36.198Z,100518.40
2023-05-22T18:30:05.325Z,100514.83
2023-05-22T18:32:32.939Z,100514.31
2023-05-22T18:35:03.181Z,100518.45
2023-05-22T18:37:31.001Z,100518.73
2023-05-22T18:39:58.504Z,100519.05
2023-05-22T18:42:25.915Z,100523.60
2023-05-22T18:44:53.620Z,100521.95
2023-05-22T18:47:20.949Z,100520.98
2023-05-22T18:49:48.473Z,100519.91
2023-05-22T18:52:15.965Z,100521.15
2023-05-22T18:54:43.515Z,100526.17
2023-05-22T18:57:11.116Z,100523.52
2023-05-22T18:59:38.530Z,100521.28
2023-05-22T19:02:06.008Z,100516.13
2023-05-22T19:04:33.413Z,100516.89
2023-05-22T19:07:00.866Z,100520.27
2023-05-22T19:09:28.267Z,100517.52
2023-05-22T19:11:56.076Z,100516.25
2023-05-22T19:14:23.632Z,100515.11
2023-05-22T19:16:51.075Z,100515.48
2023-05-22T19:19:18.833Z,100516.59
2023-05-22T19:21:46.517Z,100516.63
2023-05-22T19:24:13.977Z,100518.49
2023-05-22T19:26:41.642Z,100519.83
2023-05-22T19:29:09.016Z,100520.02
2023-05-22T19:31:36.683Z,100518.73
2023-05-22T19:34:04.591Z,100520.19
2023-05-22T19:36:32.844Z,100523.40
2023-05-22T19:39:00.264Z,100522.81
2023-05-22T19:41:28.051Z,100519.14
2023-05-22T19:43:55.485Z,100517.93
2023-05-22T19:46:23.052Z,100515.92
2023-05-22T19:48:50.704Z,100518.09
2023-05-22T19:51:18.163Z,100520.33
2023-05-22T19:53:45.654Z,100520.30
2023-05-22T19:56:13.185Z,100519.00
2023-05-22T19:58:40.738Z,100525.26
2023-05-22T20:01:08.144Z,100523.20
2023-05-22T20:03:35.992Z,100522.75
2023-05-22T20:06:05.021Z,100521.93
2023-05-22T20:08:32.367Z,100523.80
2023-05-22T20:10:59.811Z,100520.13
2023-05-22T20:13:27.418Z,100527.76
2023-05-22T20:15:54.901Z,100530.06
2023-05-22T20:18:23.166Z,100526.77
2023-05-22T20:20:50.574Z,100526.59
2023-05-22T20:23:18.080Z,100525.42
2023-05-22T20:25:45.618Z,100524.18
2023-05-22T20:28:12.992Z,100524.02
2023-05-22T20:30:40.566Z,100528.83
2023-05-22T20:33:08.420Z,100525.16
2023-05-22T20:35:37.426Z,100524.21
2023-05-22T20:38:08.798Z,100520.66
2023-05-22T20:40:37.113Z,100519.32
2023-05-22T20:43:04.798Z,100519.56
2023-05-22T20:45:32.495Z,100520.29
2023-05-22T20:48:00.758Z,100515.27
2023-05-22T20:50:28.366Z,100512.83
2023-05-22T20:52:55.799Z,100513.31
2023-05-22T20:55:23.337Z,100511.21
2023-05-22T20:57:50.988Z,100511.84
2023-05-22T21:00:19.287Z,100510.64
2023-05-22T21:02:46.694Z,100511.89
2023-05-22T21:05:14.098Z,100509.77
2023-05-22T21:07:41.636Z,100507.33
2023-05-22T21:10:09.579Z,100507.70
2023-05-22T21:12:37.009Z,100510.84
2023-05-22T21:15:05.247Z,100511.46
2023-05-22T21:17:32.639Z,100515.70
2023-05-22T21:19:59.971Z,100515.26
2023-05-22T21:22:27.515Z,100519.00
2023-05-22T21:24:54.972Z,100517.17
2023-05-22T21:27:22.470Z,100521.23
2023-05-22T21:29:50.093Z,100522.82
2023-05-22T21:32:18.600Z,100522.98
2023-05-22T21:34:46.808Z,100525.61
2023-05-22T21:37:14.254Z,100527.48
2023-05-22T21:39:41.816Z,100525.60
2023-05-22T21:42:09.331Z,100521.52
2023-05-22T21:44:37.710Z,100519.49
2023-05-22T21:47:05.551Z,100524.05
2023-05-22T21:49:33.442Z,100522.63
2023-05-22T21:52:01.203Z,100520.75
2023-05-22T21:54:28.790Z,100522.46
2023-05-22T21:56:56.242Z,100519.52
2023-05-22T21:59:23.798Z,100519.19
2023-05-22T22:01:51.374Z,100518.64
2023-05-22T22:04:19.018Z,100519.21
2023-05-22T22:06:46.466Z,100520.25
2023-05-22T22:09:13.922Z,100523.97
2023-05-22T22:11:41.297Z,100527.05
2023-05-22T22:14:08.742Z,100531.37
2023-05-22T22:16:36.570Z,100535.85
2023-05-22T22:19:04.484Z,100529.36
2023-05-22T22:21:33.661Z,100532.37
2023-05-22T22:24:01.444Z,100531.35
2023-05-22T22:26:30.248Z,100535.50
2023-05-22T22:28:58.092Z,100533.77
2023-05-22T22:31:26.458Z,100533.84
2023-05-22T22:33:54.133Z,100529.54
2023-05-22T22:36:23.020Z,100528.91
2023-05-22T22:38:50.713Z,100529.91
2023-05-22T22:41:18.143Z,100526.66
2023-05-22T22:43:45.604Z,100526.92
2023-05-22T22:46:13.763Z,100524.87
2023-05-22T22:48:42.078Z,100517.77
2023-05-22T22:51:09.853Z,100515.70
2023-05-22T22:53:37.457Z,100517.74
2023-05-22T22:56:05.150Z,100516.39
2023-05-22T22:58:32.631Z,100511.61
2023-05-22T23:01:00.215Z,100505.35
2023-05-22T23:03:27.820Z,100504.74
2023-05-22T23:05:55.703Z,100502.84
2023-05-22T23:08:23.479Z,100502.06
2023-05-22T23:10:50.832Z,100503.37
2023-05-22T23:13:18.387Z,100499.34
2023-05-22T23:15:45.905Z,100499.38
2023-05-22T23:18:14.052Z,100497.90
2023-05-22T23:20:41.494Z,100500.17
2023-05-22T23:23:08.874Z,100498.91
2023-05-22T23:25:36.235Z,100498.49
2023-05-22T23:28:03.691Z,100496.95
2023-05-22T23:30:31.198Z,100498.60
2023-05-22T23:32:58.678Z,100496.70
2023-05-22T23:35:26.155Z,100496.84
2023-05-22T23:37:53.601Z,100496.80
2023-05-22T23:40:21.099Z,100494.91
2023-05-22T23:42:48.517Z,100494.12
2023-05-22T23:45:15.967Z,100496.58
2023-05-22T23:47:43.383Z,100497.95
2023-05-22T23:50:11.196Z,100493.39
2023-05-22T23:52:38.616Z,100497.41
2023-05-22T23:55:06.754Z,100498.68
2023-05-22T23:57:34.189Z,100498.85
